Swan Valley, Idaho
Current Conditions -  °F | °C
As of 8:56 PM on Sunday 21 Dec 2014 (Local Time) from KDIJ Reporting Station
Clear Clear  
Wind Chill: 15°   Ceiling: Unl
Heat Index: 25°   Visibility: 10mi
Dew Point: 19°   Wind: 10mph
Humidity: 78%   Direction: 60°ENE
Pressure: 29.89"   Gusts: NA
Location:  43.46°N, 111.34°W
Report Text: KDIJ 220356Z AUTO 06009KT 10SM CLR M04/M07 A2989 RMK AO2 T10381072 SLP116
Loading
Personal Weather Stations






























Interactive Weather Map New forecast layout! Learn more

10-Day Weather Forecast

Advertisements
Track Severe Weather on mobile